Time;durP1;ratioP1;P1;durP2;ratioP2;P2;SDS_P1;SDS_P2;PMS_P1;PMS_P2;Temp;Humidity;BMP_temperature;BMP_pressure;BME280_temperature;BME280_humidity;BME280_pressure;Samples;Min_cycle;Max_cycle;Signal;HPM_P1;HPM_P2
2024/01/19 00:02:16;;;;;;;183.13;80.65;;;;;;;7.99;81.87;97949.09;6234888;23;20043;-76
2024/01/19 00:05:01;;;;;;;169.88;76.72;;;;;;;8.18;81.41;97953.09;6232551;23;20472;-77
2024/01/19 00:07:46;;;;;;;176.90;75.40;;;;;;;8.15;81.16;97956.22;6233957;23;20027;-76
2024/01/19 00:10:32;;;;;;;164.20;80.82;;;;;;;8.09;80.86;97943.97;6233996;23;20027;-78
2024/01/19 00:13:18;;;;;;;133.70;59.13;;;;;;;8.03;81.51;97952.88;6234718;23;20047;-76
2024/01/19 00:16:04;;;;;;;113.00;52.67;;;;;;;8.47;79.75;97952.94;6234313;23;20027;-76
2024/01/19 00:18:49;;;;;;;108.75;48.58;;;;;;;8.26;80.48;97935.97;6233696;23;20046;-76
2024/01/19 00:21:45;;;;;;;126.35;58.05;;;;;;;8.24;80.50;97949.47;6235121;23;20031;-76
2024/01/19 00:24:30;;;;;;;115.55;52.40;;;;;;;8.16;80.55;97957.81;6232565;23;20035;-76
2024/01/19 00:27:16;;;;;;;112.40;52.17;;;;;;;8.11;81.04;97970.97;6233989;23;20310;-75
2024/01/19 00:30:03;;;;;;;117.75;51.63;;;;;;;8.06;80.79;97971.72;6234889;23;20441;-75
2024/01/19 00:32:48;;;;;;;120.80;52.92;;;;;;;7.98;80.92;97969.47;6231429;23;20027;-77
2024/01/19 00:35:33;;;;;;;129.50;58.05;;;;;;;7.94;81.55;97972.88;6234443;23;20317;-77
2024/01/19 00:38:19;;;;;;;143.63;71.57;;;;;;;7.98;81.25;97997.78;6233956;23;20325;-75
2024/01/19 00:41:04;;;;;;;127.65;59.15;;;;;;;7.93;81.88;97998.53;6231325;22;20433;-76
2024/01/19 00:43:50;;;;;;;126.72;55.95;;;;;;;7.93;81.80;98005.63;6233792;23;20317;-76
2024/01/19 00:46:35;;;;;;;126.03;55.30;;;;;;;7.87;82.34;97992.34;6233559;23;20027;-77
2024/01/19 00:49:22;;;;;;;111.38;54.03;;;;;;;7.89;82.31;97998.19;6234686;23;20043;-77
2024/01/19 00:52:07;;;;;;;118.88;54.53;;;;;;;7.87;82.21;98000.28;6232600;23;20031;-76
2024/01/19 00:54:52;;;;;;;114.55;50.15;;;;;;;7.87;82.22;98000.28;6233641;23;20072;-78
2024/01/19 00:57:37;;;;;;;97.65;46.90;;;;;;;7.92;82.25;98001.41;6232919;23;20432;-76
2024/01/19 01:00:23;;;;;;;91.30;42.78;;;;;;;7.95;81.89;98003.56;6232946;23;20318;-77
2024/01/19 01:03:09;;;;;;;80.78;37.97;;;;;;;7.96;81.88;98002.50;6234252;23;20035;-77
2024/01/19 01:05:59;;;;;;;92.78;43.63;;;;;;;7.94;82.04;98008.06;6233459;23;20055;-77
2024/01/19 01:08:45;;;;;;;88.88;41.97;;;;;;;7.95;81.97;98006.19;6233183;23;20027;-76
2024/01/19 01:11:31;;;;;;;78.88;40.92;;;;;;;7.83;82.52;98001.81;6233324;23;20027;-76
2024/01/19 01:14:17;;;;;;;78.18;40.47;;;;;;;7.86;82.43;98001.31;6233204;23;20047;-76
2024/01/19 01:17:03;;;;;;;88.00;44.28;;;;;;;7.86;82.35;97993.38;6234518;23;20046;-77
2024/01/19 01:19:48;;;;;;;99.30;46.75;;;;;;;7.91;82.09;97992.66;6235824;23;20043;-77
2024/01/19 01:22:34;;;;;;;94.35;44.08;;;;;;;7.81;82.48;97985.38;6234055;23;20027;-77
2024/01/19 01:25:19;;;;;;;106.32;49.70;;;;;;;8.00;82.03;98001.78;6234967;23;20027;-76
2024/01/19 01:28:06;;;;;;;122.13;50.10;;;;;;;8.07;81.33;98001.63;6233334;23;20443;-77
2024/01/19 01:30:52;;;;;;;97.45;43.78;;;;;;;7.99;82.01;98002.03;6234219;23;20318;-77
2024/01/19 01:33:37;;;;;;;100.10;43.13;;;;;;;7.88;82.10;98006.38;6232689;23;20050;-77
2024/01/19 01:36:23;;;;;;;99.20;41.15;;;;;;;7.85;82.13;97994.41;6233999;23;20042;-76
2024/01/19 01:39:11;;;;;;;104.30;42.17;;;;;;;7.92;81.66;98004.03;6234181;23;20436;-77
2024/01/19 01:41:56;;;;;;;102.30;44.47;;;;;;;7.90;82.01;98001.66;6227226;23;20317;-76
2024/01/19 01:44:42;;;;;;;103.82;46.47;;;;;;;7.85;81.94;97998.91;6233874;23;20070;-76
2024/01/19 01:47:27;;;;;;;106.93;46.38;;;;;;;7.91;82.25;98019.13;6233634;23;20310;-78
2024/01/19 01:50:13;;;;;;;99.30;46.38;;;;;;;7.84;82.23;98018.47;6234028;23;20043;-76
2024/01/19 01:52:58;;;;;;;95.13;44.92;;;;;;;7.81;83.08;98025.06;6233080;23;20416;-77
2024/01/19 01:55:46;;;;;;;101.45;45.72;;;;;;;7.77;83.12;98023.94;6233139;23;20028;-76
2024/01/19 01:58:31;;;;;;;97.70;44.67;;;;;;;7.76;82.84;98011.75;6232478;23;20047;-78
2024/01/19 02:01:17;;;;;;;97.35;42.90;;;;;;;7.72;83.16;98010.63;6232594;23;20436;-75
2024/01/19 02:04:03;;;;;;;92.45;42.38;;;;;;;7.61;83.47;97999.06;6231762;23;20027;-76
2024/01/19 02:06:48;;;;;;;114.68;48.50;;;;;;;7.68;83.24;98008.69;6232247;23;20027;-76
2024/01/19 02:09:34;;;;;;;122.28;48.20;;;;;;;7.69;83.35;98019.03;6233128;23;20027;-77
2024/01/19 02:12:21;;;;;;;125.80;52.25;;;;;;;7.63;83.73;98015.50;6231857;23;20027;-76
2024/01/19 02:15:18;;;;;;;118.10;51.65;;;;;;;7.56;83.84;98012.22;6233391;23;20444;-76
2024/01/19 02:18:04;;;;;;;129.02;51.45;;;;;;;7.49;84.52;98008.94;6232972;23;20326;-77
2024/01/19 02:20:50;;;;;;;114.47;51.10;;;;;;;7.50;84.30;98025.59;6233146;23;20317;-77
2024/01/19 02:23:42;;;;;;;105.93;46.70;;;;;;;7.50;84.51;98022.94;6233204;23;20043;-76
2024/01/19 02:26:28;;;;;;;147.45;57.38;;;;;;;7.42;84.82;98027.56;6233332;23;20321;-77
2024/01/19 02:29:14;;;;;;;131.48;54.67;;;;;;;7.33;84.70;98009.69;6211288;23;20043;-75
2024/01/19 02:32:00;;;;;;;117.55;51.83;;;;;;;7.35;84.39;98016.34;6232869;23;20043;-77
2024/01/19 02:34:46;;;;;;;87.50;42.58;;;;;;;7.39;84.93;98014.84;6233223;23;20313;-77
2024/01/19 02:37:30;;;;;;;83.22;37.88;;;;;;;7.32;84.28;98008.09;6234348;23;20047;-76
2024/01/19 02:40:16;;;;;;;74.53;35.20;;;;;;;7.40;84.03;98013.81;6234720;23;20444;-77
2024/01/19 02:43:02;;;;;;;66.47;32.20;;;;;;;7.38;83.72;98026.44;6233729;23;20023;-75
2024/01/19 02:45:47;;;;;;;68.35;32.05;;;;;;;7.37;83.83;98030.16;6232576;23;20047;-77
2024/01/19 02:48:33;;;;;;;83.25;36.95;;;;;;;7.41;84.39;98033.09;6233405;23;20043;-78
2024/01/19 02:51:18;;;;;;;83.10;36.17;;;;;;;7.39;84.29;98028.03;6231604;23;20031;-77
2024/01/19 02:54:04;;;;;;;85.20;38.35;;;;;;;7.36;83.93;98033.84;6232374;23;20043;-77
2024/01/19 02:56:49;;;;;;;71.57;35.45;;;;;;;7.21;84.36;98024.81;6235606;23;20421;-77
2024/01/19 02:59:34;;;;;;;72.93;34.72;;;;;;;7.24;84.40;98042.84;6234440;23;20027;-77
2024/01/19 03:02:20;;;;;;;76.78;36.55;;;;;;;7.18;84.16;98037.47;6235209;23;20027;-76
2024/01/19 03:05:06;;;;;;;65.95;33.45;;;;;;;7.15;84.44;98042.44;6234295;23;20043;-76
2024/01/19 03:07:51;;;;;;;68.20;33.28;;;;;;;7.23;84.64;98042.03;6233721;23;20433;-76
2024/01/19 03:10:36;;;;;;;76.88;34.35;;;;;;;7.30;84.13;98050.66;6235324;23;20027;-76
2024/01/19 03:13:21;;;;;;;73.20;35.60;;;;;;;7.18;84.41;98045.41;6234135;23;20043;-76
2024/01/19 03:16:07;;;;;;;68.35;32.25;;;;;;;7.06;84.28;98038.56;6234466;23;20437;-76
2024/01/19 03:19:00;;;;;;;69.90;34.25;;;;;;;7.01;84.30;98052.47;6234160;23;20027;-78
2024/01/19 03:21:45;;;;;;;68.20;32.15;;;;;;;7.00;85.27;98055.34;6235043;23;20441;-79
2024/01/19 03:24:30;;;;;;;69.18;33.42;;;;;;;6.98;84.70;98049.50;6234676;23;20027;-76
2024/01/19 03:27:16;;;;;;;68.07;31.77;;;;;;;6.99;84.86;98049.28;6234456;23;20509;-76
2024/01/19 03:30:02;;;;;;;56.25;30.90;;;;;;;7.00;84.67;98042.94;6234639;23;20433;-76
2024/01/19 03:32:47;;;;;;;49.08;26.30;;;;;;;7.17;85.24;98045.63;6233997;23;20350;-77
2024/01/19 03:35:33;;;;;;;51.92;25.85;;;;;;;7.26;84.27;98052.13;6233680;23;20436;-75
2024/01/19 03:38:19;;;;;;;55.78;28.40;;;;;;;7.22;84.22;98053.66;6234545;23;20050;-77
2024/01/19 03:41:05;;;;;;;49.85;26.45;;;;;;;7.26;84.24;98035.47;6232592;23;20294;-76
2024/01/19 03:43:51;;;;;;;63.10;32.22;;;;;;;7.12;84.63;98048.97;6234625;23;20043;-76
2024/01/19 03:46:36;;;;;;;66.13;31.77;;;;;;;7.11;84.75;98046.56;6234292;23;20321;-75
2024/01/19 03:49:27;;;;;;;74.78;34.28;;;;;;;7.01;85.17;98041.09;6232804;23;20023;-76
2024/01/19 03:52:12;;;;;;;69.25;33.50;;;;;;;6.99;85.30;98041.34;6234345;23;20321;-74
2024/01/19 03:54:58;;;;;;;67.00;31.50;;;;;;;7.01;85.36;98043.72;6234181;23;20031;-76
2024/01/19 03:57:43;;;;;;;61.45;31.88;;;;;;;6.98;85.34;98046.84;6235495;23;20047;-75
2024/01/19 04:00:29;;;;;;;55.42;29.17;;;;;;;6.98;85.01;98044.22;6235039;23;20039;-77
2024/01/19 04:03:15;;;;;;;53.20;28.75;;;;;;;6.93;85.37;98050.19;6235142;23;20027;-76
2024/01/19 04:06:01;;;;;;;58.33;28.45;;;;;;;6.88;85.48;98050.09;6234157;23;20432;-76
2024/01/19 04:08:46;;;;;;;54.20;28.10;;;;;;;6.83;85.83;98061.38;6233934;23;20027;-78
2024/01/19 04:11:36;;;;;;;52.90;27.42;;;;;;;6.77;85.85;98062.31;6233895;23;20309;-77
2024/01/19 04:14:21;;;;;;;52.22;27.58;;;;;;;6.78;85.77;98071.81;6234922;23;20042;-77
2024/01/19 04:17:07;;;;;;;55.40;28.27;;;;;;;6.81;85.74;98070.56;6211710;23;20318;-78
2024/01/19 04:19:52;;;;;;;53.17;27.58;;;;;;;6.80;86.34;98077.69;6234581;23;20440;-76
2024/01/19 04:22:37;;;;;;;65.47;33.45;;;;;;;6.81;86.39;98066.06;6233483;23;20027;-76
2024/01/19 04:25:22;;;;;;;64.90;31.35;;;;;;;6.83;85.75;98089.59;6233255;23;20318;-76
2024/01/19 04:28:08;;;;;;;49.58;24.13;;;;;;;6.83;85.53;98079.84;6234274;23;20326;-76
2024/01/19 04:30:53;;;;;;;43.28;22.58;;;;;;;6.81;85.82;98074.00;6232060;23;20043;-77
2024/01/19 04:33:39;;;;;;;39.38;21.17;;;;;;;6.92;85.90;98086.34;6233772;23;20027;-77
2024/01/19 04:36:24;;;;;;;43.20;21.15;;;;;;;6.89;85.39;98062.25;6232704;23;20027;-78
2024/01/19 04:39:09;;;;;;;40.10;22.02;;;;;;;6.99;85.83;98085.41;6233873;23;20031;-77
2024/01/19 04:41:55;;;;;;;37.47;20.10;;;;;;;7.08;85.61;98089.31;6228577;23;20043;-76
2024/01/19 04:44:41;;;;;;;39.53;20.15;;;;;;;7.12;85.42;98083.34;6231927;23;20027;-75
2024/01/19 04:47:26;;;;;;;49.35;24.80;;;;;;;7.17;85.55;98079.97;6233194;23;20042;-74
2024/01/19 04:50:12;;;;;;;58.80;28.73;;;;;;;7.15;85.09;98074.13;6233807;23;20035;-76
2024/01/19 04:52:57;;;;;;;56.33;28.67;;;;;;;7.18;86.08;98100.09;6233819;23;20027;-76
2024/01/19 04:55:43;;;;;;;47.47;24.73;;;;;;;7.16;85.53;98091.59;6233978;23;20023;-77
2024/01/19 04:58:28;;;;;;;54.00;27.40;;;;;;;7.16;85.53;98096.88;6233391;23;20047;-77
2024/01/19 05:01:14;;;;;;;49.58;24.80;;;;;;;7.15;86.11;98093.44;6234309;23;20433;-77
2024/01/19 05:04:00;;;;;;;49.55;25.15;;;;;;;7.14;86.00;98094.44;6231742;23;20313;-77
2024/01/19 05:06:45;;;;;;;51.55;26.08;;;;;;;7.13;85.65;98108.69;6231974;23;20444;-78
2024/01/19 05:09:31;;;;;;;47.40;25.98;;;;;;;7.12;85.51;98104.47;6233101;23;20027;-77
2024/01/19 05:12:16;;;;;;;48.38;25.95;;;;;;;7.11;86.18;98109.97;6232901;23;20077;-75
2024/01/19 05:15:02;;;;;;;56.08;27.55;;;;;;;7.17;86.43;98111.69;6233190;23;20027;-77
2024/01/19 05:17:47;;;;;;;53.15;26.17;;;;;;;7.25;86.43;98121.88;6234295;23;20432;-76
2024/01/19 05:20:32;;;;;;;50.83;26.17;;;;;;;7.26;86.53;98117.41;6233036;23;20035;-76
2024/01/19 05:23:18;;;;;;;53.85;28.13;;;;;;;7.18;86.15;98115.94;6234398;23;20042;-76
2024/01/19 05:26:08;;;;;;;61.40;30.63;;;;;;;7.24;86.03;98127.41;6231902;23;20027;-75
2024/01/19 05:28:54;;;;;;;53.80;28.05;;;;;;;7.40;86.35;98126.66;6232795;23;20027;-77
2024/01/19 05:31:38;;;;;;;70.50;35.28;;;;;;;7.31;86.24;98117.50;6232814;23;20440;-77
2024/01/19 05:34:24;;;;;;;105.90;47.60;;;;;;;7.37;85.59;98132.44;6232868;23;20027;-76
2024/01/19 05:37:09;;;;;;;108.30;48.30;;;;;;;7.35;85.95;98147.72;6233673;23;20440;-76
2024/01/19 05:39:55;;;;;;;102.40;46.88;;;;;;;7.35;85.63;98142.41;6230909;23;20326;-76
2024/01/19 05:42:41;;;;;;;112.63;46.97;;;;;;;7.34;85.73;98141.63;6225836;22;20027;-77
2024/01/19 05:45:26;;;;;;;97.85;43.58;;;;;;;7.34;86.17;98143.47;6233304;23;20047;-76
2024/01/19 05:48:12;;;;;;;96.78;41.30;;;;;;;7.48;85.75;98146.63;6233761;23;20433;-75
2024/01/19 05:50:57;;;;;;;85.75;40.60;;;;;;;7.47;86.02;98163.53;6233498;23;20318;-76
2024/01/19 05:53:44;;;;;;;168.77;74.95;;;;;;;7.44;85.71;98143.66;6232961;23;20027;-76
2024/01/19 05:56:29;;;;;;;110.75;51.70;;;;;;;7.48;85.97;98142.13;6234075;23;20035;-76
2024/01/19 05:59:15;;;;;;;88.80;43.13;;;;;;;7.51;85.74;98152.25;6233994;23;20031;-76
2024/01/19 06:02:01;;;;;;;79.80;41.30;;;;;;;7.44;85.74;98140.22;6233782;23;20028;-77
2024/01/19 06:04:47;;;;;;;120.70;54.22;;;;;;;7.40;85.90;98151.25;6233101;23;20027;-76
2024/01/19 06:07:33;;;;;;;109.43;49.40;;;;;;;7.32;86.24;98138.41;6232472;23;20031;-77
2024/01/19 06:10:17;;;;;;;133.30;61.35;;;;;;;7.40;86.13;98163.69;6233720;23;20042;-77
2024/01/19 06:13:03;;;;;;;126.47;55.78;;;;;;;7.27;85.77;98145.41;6231740;23;20321;-77
2024/01/19 06:15:49;;;;;;;106.93;51.35;;;;;;;7.29;86.13;98162.66;6232914;23;20032;-76
2024/01/19 06:18:34;;;;;;;76.78;39.50;;;;;;;7.38;86.43;98163.09;6233196;23;20031;-76
2024/01/19 06:21:20;;;;;;;101.82;50.58;;;;;;;7.40;85.65;98161.84;6232590;23;20043;-76
2024/01/19 06:24:06;;;;;;;109.05;49.85;;;;;;;7.30;85.87;98147.59;6233889;23;20035;-76
2024/01/19 06:26:51;;;;;;;96.28;48.05;;;;;;;7.41;85.74;98160.00;6233324;23;20027;-76
2024/01/19 06:29:36;;;;;;;105.68;52.10;;;;;;;7.33;86.16;98137.38;6232973;23;20023;-76
2024/01/19 06:32:22;;;;;;;107.72;51.70;;;;;;;7.42;86.03;98151.81;6235811;23;20026;-77
2024/01/19 06:35:08;;;;;;;102.28;48.88;;;;;;;7.47;85.77;98145.03;6235080;23;20043;-76
2024/01/19 06:37:53;;;;;;;102.28;49.67;;;;;;;7.52;85.38;98145.94;6238723;23;20031;-77
2024/01/19 06:40:39;;;;;;;102.35;47.40;;;;;;;7.60;84.92;98150.81;6235217;23;20318;-76
2024/01/19 06:43:24;;;;;;;95.70;47.78;;;;;;;7.56;85.25;98152.34;6234928;23;20043;-77
2024/01/19 06:46:09;;;;;;;111.13;50.55;;;;;;;7.62;85.15;98156.69;6233366;23;20043;-77
2024/01/19 06:48:55;;;;;;;106.30;51.40;;;;;;;7.59;84.70;98151.88;6234591;23;20027;-76
2024/01/19 06:51:40;;;;;;;109.28;51.55;;;;;;;7.72;84.82;98160.56;6234688;23;20044;-77
2024/01/19 06:54:26;;;;;;;121.18;58.05;;;;;;;7.82;84.86;98169.47;6234864;23;20389;-78
2024/01/19 06:57:11;;;;;;;194.80;97.90;;;;;;;7.74;84.86;98177.81;6234481;23;20027;-77
2024/01/19 06:59:57;;;;;;;168.77;85.82;;;;;;;7.65;84.57;98179.22;6234772;23;20031;-76
2024/01/19 07:02:42;;;;;;;184.32;93.30;;;;;;;7.71;84.40;98167.69;6233418;23;20023;-78
2024/01/19 07:05:27;;;;;;;176.63;86.90;;;;;;;7.83;84.07;98197.56;6234803;23;20027;-77
2024/01/19 07:08:13;;;;;;;161.30;82.38;;;;;;;7.83;84.51;98204.66;6232930;23;20027;-77
2024/01/19 07:10:58;;;;;;;152.15;75.53;;;;;;;7.85;84.55;98202.59;6234288;23;20436;-77
2024/01/19 07:13:44;;;;;;;115.00;52.17;;;;;;;7.78;84.20;98194.81;6234737;23;20429;-76
2024/01/19 07:16:30;;;;;;;102.90;50.47;;;;;;;7.97;84.15;98213.13;6235249;23;20317;-76
2024/01/19 07:19:15;;;;;;;103.05;50.55;;;;;;;8.16;83.58;98206.59;6234511;23;20444;-76
2024/01/19 07:22:01;;;;;;;99.47;52.10;;;;;;;8.15;83.79;98194.41;6233832;23;20027;-76
2024/01/19 07:24:46;;;;;;;109.55;55.80;;;;;;;8.25;83.56;98199.84;6232661;23;20027;-76
2024/01/19 07:27:32;;;;;;;147.40;69.10;;;;;;;8.39;83.48;98205.66;6212358;23;20039;-77
2024/01/19 07:30:17;;;;;;;144.15;70.43;;;;;;;8.45;82.74;98202.06;6234451;23;20027;-76
2024/01/19 07:33:03;;;;;;;120.72;56.05;;;;;;;8.60;82.36;98200.69;6233211;23;20039;-77
2024/01/19 07:35:49;;;;;;;122.18;61.20;;;;;;;8.77;82.27;98206.78;6234339;23;20046;-76
2024/01/19 07:38:34;;;;;;;138.77;70.28;;;;;;;8.82;82.67;98198.13;6234550;23;20031;-76
2024/01/19 07:41:20;;;;;;;126.95;60.58;;;;;;;9.01;81.35;98208.19;6230737;23;20027;-77
2024/01/19 07:44:05;;;;;;;117.68;59.97;;;;;;;9.10;81.04;98184.72;6233061;23;20046;-76
2024/01/19 07:46:56;;;;;;;132.60;64.15;;;;;;;9.17;81.20;98198.59;6234039;23;20028;-77
2024/01/19 07:49:41;;;;;;;97.15;47.25;;;;;;;9.25;81.16;98182.28;6234348;23;20432;-77
2024/01/19 07:52:27;;;;;;;212.52;84.57;;;;;;;9.44;80.49;98188.06;6233084;23;20027;-78
2024/01/19 07:55:12;;;;;;;180.88;80.25;;;;;;;9.58;80.13;98191.13;6235162;23;20027;-76
2024/01/19 07:57:57;;;;;;;143.27;67.38;;;;;;;9.68;80.22;98185.97;6237000;23;20027;-76
2024/01/19 08:00:43;;;;;;;175.57;89.32;;;;;;;9.84;78.21;98194.88;6238151;23;20042;-76
2024/01/19 08:03:29;;;;;;;150.07;75.53;;;;;;;10.03;78.18;98195.34;6233673;23;20031;-76
2024/01/19 08:06:14;;;;;;;139.15;71.53;;;;;;;10.09;78.00;98190.84;6233712;23;20020;-76
2024/01/19 08:09:00;;;;;;;132.88;72.13;;;;;;;10.10;76.51;98180.00;6234653;23;20401;-77
2024/01/19 08:11:46;;;;;;;132.40;66.63;;;;;;;10.24;76.72;98171.63;6234787;23;20020;-76
2024/01/19 08:14:32;;;;;;;132.93;68.60;;;;;;;10.44;77.67;98185.09;6233450;23;20418;-77
2024/01/19 08:17:17;;;;;;;170.00;85.88;;;;;;;10.37;77.02;98168.56;6232367;23;20318;-76
2024/01/19 08:20:03;;;;;;;171.25;94.95;;;;;;;10.37;77.09;98176.53;6234243;23;20024;-76
2024/01/19 08:22:49;;;;;;;186.77;94.25;;;;;;;10.21;76.72;98183.53;6234344;23;20024;-77
2024/01/19 08:25:34;;;;;;;346.77;188.68;;;;;;;10.11;76.87;98178.13;6233778;23;20020;-77
2024/01/19 08:28:20;;;;;;;170.18;93.05;;;;;;;10.11;77.04;98172.84;6233343;23;20019;-76
2024/01/19 08:31:11;;;;;;;143.38;79.72;;;;;;;10.26;77.84;98177.47;6234502;23;20401;-76
2024/01/19 08:33:56;;;;;;;168.82;94.13;;;;;;;10.13;78.38;98178.69;6233216;23;20314;-77
2024/01/19 08:36:41;;;;;;;169.98;97.25;;;;;;;10.13;77.92;98166.22;6233524;23;20020;-76
2024/01/19 08:39:27;;;;;;;174.93;97.22;;;;;;;10.26;77.98;98190.75;6233801;23;20024;-75
2024/01/19 08:42:14;;;;;;;158.13;87.97;;;;;;;10.33;77.86;98181.53;6211024;23;20318;-76
2024/01/19 08:45:02;;;;;;;138.23;78.07;;;;;;;10.30;78.32;98178.59;6234433;23;20020;-75
2024/01/19 08:47:50;;;;;;;146.43;78.10;;;;;;;10.51;77.06;98182.22;6232980;23;20321;-75
2024/01/19 08:50:36;;;;;;;141.48;74.57;;;;;;;10.64;76.90;98168.50;6235029;23;20310;-76
2024/01/19 08:53:21;;;;;;;114.72;64.45;;;;;;;10.77;75.67;98185.84;6233322;23;20325;-74
2024/01/19 08:56:07;;;;;;;131.25;59.38;;;;;;;10.68;75.42;98198.00;6233221;23;20321;-75
2024/01/19 08:58:52;;;;;;;168.05;82.68;;;;;;;10.80;75.14;98188.78;6233600;23;20020;-76
2024/01/19 09:01:38;;;;;;;158.30;69.07;;;;;;;11.05;73.88;98201.44;6233678;23;20337;-78
2024/01/19 09:04:24;;;;;;;109.10;52.33;;;;;;;11.55;73.03;98184.09;6233534;23;20020;-75
2024/01/19 09:07:09;;;;;;;98.30;53.35;;;;;;;12.11;70.76;98183.47;6232077;23;20433;-78
2024/01/19 09:09:55;;;;;;;71.93;40.38;;;;;;;12.53;67.33;98190.41;6233501;23;20042;-77
2024/01/19 09:12:40;;;;;;;72.55;37.97;;;;;;;12.63;66.75;98185.09;6234120;23;20043;-77
2024/01/19 09:15:26;;;;;;;73.10;37.95;;;;;;;13.15;64.80;98183.91;6235693;23;20027;-77
2024/01/19 09:18:11;;;;;;;61.85;37.35;;;;;;;13.13;64.70;98177.25;6235246;23;20043;-78
2024/01/19 09:20:57;;;;;;;68.13;36.92;;;;;;;13.25;64.15;98160.97;6233474;23;20075;-76
2024/01/19 09:23:43;;;;;;;101.63;47.13;;;;;;;13.43;64.67;98169.16;6233138;23;20027;-77
2024/01/19 09:26:35;;;;;;;85.50;46.70;;;;;;;13.70;63.57;98170.66;6232663;23;20311;-78
2024/01/19 09:29:21;;;;;;;72.45;40.45;;;;;;;13.67;63.01;98163.19;6233387;23;20027;-76
2024/01/19 09:32:06;;;;;;;78.32;44.28;;;;;;;13.58;63.92;98156.81;6232056;23;20023;-77
2024/01/19 09:34:51;;;;;;;93.57;48.65;;;;;;;13.36;65.21;98160.66;6233075;23;20444;-77
2024/01/19 09:37:36;;;;;;;79.65;43.25;;;;;;;13.27;65.31;98172.16;6233452;23;20443;-78
2024/01/19 09:40:21;;;;;;;93.13;48.60;;;;;;;13.28;65.17;98166.53;6233418;23;20439;-77
2024/01/19 09:43:07;;;;;;;87.80;46.08;;;;;;;13.22;66.00;98156.94;6203781;23;20024;-76
2024/01/19 09:45:53;;;;;;;82.80;44.53;;;;;;;13.17;66.06;98157.78;6201364;23;20043;-77
2024/01/19 09:48:48;;;;;;;56.88;27.35;;;;;;;13.01;66.42;98168.75;6201112;23;20027;-75
2024/01/19 09:51:58;;;;;;;53.38;24.33;;;;;;;12.87;66.95;98179.19;6202398;23;20032;-77
2024/01/19 09:54:44;;;;;;;50.53;25.52;;;;;;;12.94;66.74;98161.84;6172059;23;20449;-76
2024/01/19 09:57:30;;;;;;;67.78;33.33;;;;;;;13.07;66.56;98157.00;6202578;23;20472;-76
2024/01/19 10:00:17;;;;;;;52.72;25.88;;;;;;;12.98;67.10;98172.78;6201871;23;20314;-76
2024/01/19 10:03:03;;;;;;;61.05;30.40;;;;;;;13.08;67.48;98161.28;6201837;23;20437;-76
2024/01/19 10:05:52;;;;;;;63.97;31.55;;;;;;;13.54;66.47;98174.47;6204066;23;20048;-76
2024/01/19 10:08:38;;;;;;;62.15;31.98;;;;;;;14.01;64.55;98163.25;6204791;23;20039;-77
2024/01/19 10:11:26;;;;;;;62.17;30.33;;;;;;;14.09;65.01;98159.19;6183055;23;20023;-77
2024/01/19 10:14:11;;;;;;;58.50;26.55;;;;;;;13.78;64.00;98166.59;6203013;23;20031;-75
2024/01/19 10:16:57;;;;;;;54.55;29.08;;;;;;;14.03;64.04;98153.06;6205161;23;20414;-76
2024/01/19 10:19:42;;;;;;;51.05;25.92;;;;;;;14.38;61.75;98153.06;6203097;23;20330;-76
2024/01/19 10:22:29;;;;;;;60.97;26.92;;;;;;;14.15;62.35;98131.34;6203243;23;20044;-77
2024/01/19 10:25:15;;;;;;;59.03;25.85;;;;;;;14.07;62.76;98143.44;6182631;23;20424;-77
2024/01/19 10:28:00;;;;;;;36.25;19.17;;;;;;;14.11;62.82;98138.34;6205070;23;20291;-78
2024/01/19 10:30:47;;;;;;;35.15;19.92;;;;;;;14.39;61.52;98134.09;6204513;23;20043;-77
2024/01/19 10:33:34;;;;;;;39.30;18.08;;;;;;;14.76;61.50;98148.72;6206220;23;20445;-79
2024/01/19 10:36:20;;;;;;;15.82;8.50;;;;;;;14.73;60.57;98144.78;6208261;23;20318;-77
2024/01/19 10:39:26;;;;;;;14.90;8.23;;;;;;;14.50;61.83;98142.81;6205518;23;20075;-77
2024/01/19 10:42:11;;;;;;;30.70;13.75;;;;;;;14.44;61.99;98141.25;6220499;23;20031;-79
2024/01/19 10:45:14;;;;;;;13.48;6.95;;;;;;;14.39;62.92;98144.00;6235444;23;20042;-77
2024/01/19 10:48:01;;;;;;;21.08;10.35;;;;;;;14.46;62.11;98141.78;6234571;23;20043;-77
2024/01/19 10:50:47;;;;;;;15.63;6.20;;;;;;;14.67;61.44;98145.91;6234505;23;20322;-79
2024/01/19 10:53:32;;;;;;;15.23;7.70;;;;;;;14.41;63.26;98150.63;6233013;23;20103;-78
2024/01/19 10:56:23;;;;;;;11.60;5.95;;;;;;;14.48;62.14;98139.63;6233191;23;20318;-77
2024/01/19 10:59:10;;;;;;;12.90;6.20;;;;;;;14.43;63.26;98145.03;6235042;23;20082;-76
2024/01/19 11:01:58;;;;;;;10.40;5.75;;;;;;;14.40;64.67;98161.63;6234720;23;20322;-77
2024/01/19 11:04:44;;;;;;;22.27;9.70;;;;;;;14.25;67.44;98165.19;6235198;23;20039;-77
2024/01/19 11:07:30;;;;;;;33.85;14.55;;;;;;;14.00;68.92;98171.53;6233643;23;20313;-75
2024/01/19 11:10:15;;;;;;;14.32;7.85;;;;;;;13.89;69.36;98174.28;6233189;23;20314;-79
2024/01/19 11:13:04;;;;;;;12.65;7.57;;;;;;;13.85;68.74;98189.25;6233518;23;20031;-77
2024/01/19 11:15:53;;;;;;;17.52;10.52;;;;;;;13.65;68.91;98200.03;6233966;23;20464;-78
2024/01/19 11:18:38;;;;;;;13.68;6.78;;;;;;;12.64;70.53;98205.34;6232917;23;20027;-78
2024/01/19 11:21:24;;;;;;;14.48;7.68;;;;;;;12.38;71.25;98233.84;6233470;23;20027;-78
2024/01/19 11:24:11;;;;;;;24.70;12.00;;;;;;;11.97;71.00;98239.13;6233887;23;20039;-79
2024/01/19 11:27:03;;;;;;;18.95;11.82;;;;;;;11.53;71.94;98262.59;6234304;23;20448;-77
2024/01/19 11:29:52;;;;;;;12.18;6.60;;;;;;;10.51;72.47;98275.19;6232773;23;20043;-78
2024/01/19 11:32:37;;;;;;;7.05;4.95;;;;;;;9.95;72.73;98301.94;6233690;23;20043;-78
2024/01/19 11:35:40;;;;;;;17.42;9.90;;;;;;;9.63;72.43;98345.06;6233239;23;20027;-78
2024/01/19 11:38:38;;;;;;;10.93;7.15;;;;;;;9.09;72.99;98349.28;6233819;23;20436;-80
2024/01/19 11:41:33;;;;;;;14.18;7.95;;;;;;;8.76;73.41;98369.41;6233115;22;20447;-79
2024/01/19 11:44:39;;;;;;;24.58;13.95;;;;;;;8.51;73.63;98394.41;6233987;23;20043;-79
2024/01/19 11:47:39;;;;;;;20.23;11.00;;;;;;;8.16;73.78;98413.00;6233107;23;20027;-77
2024/01/19 11:50:45;;;;;;;20.30;10.55;;;;;;;7.96;72.94;98436.38;6232754;23;20042;-78
2024/01/19 11:54:08;;;;;;;13.05;7.93;;;;;;;7.30;73.87;98454.19;6236959;23;20019;-78
2024/01/19 11:57:16;;;;;;;14.77;8.30;;;;;;;7.19;73.95;98461.84;6134298;23;20032;-78
2024/01/19 12:00:02;;;;;;;15.60;8.90;;;;;;;6.93;74.12;98478.91;6142783;23;20367;-77
2024/01/19 12:02:55;;;;;;;17.13;10.35;;;;;;;6.45;75.43;98484.97;6232724;23;20448;-79
2024/01/19 12:05:42;;;;;;;17.52;11.00;;;;;;;6.22;75.22;98487.47;6232322;23;20027;-76
2024/01/19 12:08:28;;;;;;;21.83;12.93;;;;;;;6.13;75.77;98515.16;6234005;23;20027;-79
2024/01/19 12:11:14;;;;;;;16.60;10.02;;;;;;;5.77;75.49;98511.41;6233699;23;20035;-77
2024/01/19 12:14:03;;;;;;;11.65;7.25;;;;;;;5.60;74.99;98541.97;6232802;23;20028;-77
2024/01/19 12:16:50;;;;;;;17.38;9.98;;;;;;;5.51;76.45;98552.75;6232853;23;20035;-77
2024/01/19 12:19:35;;;;;;;79.93;37.78;;;;;;;5.22;76.53;98579.69;6233562;23;20075;-78
2024/01/19 12:22:21;;;;;;;26.58;16.73;;;;;;;5.17;76.87;98595.31;6235146;23;20433;-77
2024/01/19 12:25:13;;;;;;;12.27;7.07;;;;;;;4.92;76.56;98603.94;6234017;23;20064;-79
2024/01/19 12:28:04;;;;;;;16.05;9.77;;;;;;;4.80;76.46;98624.03;6233589;23;20027;-77
2024/01/19 12:30:52;;;;;;;7.78;4.68;;;;;;;4.49;77.72;98640.47;6211635;23;20103;-78
2024/01/19 12:33:38;;;;;;;19.35;10.13;;;;;;;4.37;77.32;98648.19;6232375;23;20027;-78
2024/01/19 12:36:26;;;;;;;38.80;18.73;;;;;;;4.49;77.88;98672.88;6233428;23;20038;-77
2024/01/19 12:39:14;;;;;;;10.05;6.80;;;;;;;4.36;78.20;98659.72;6211055;23;20314;-78
2024/01/19 12:42:05;;;;;;;7.28;4.60;;;;;;;4.30;77.66;98684.22;6230575;22;20027;-78
2024/01/19 12:44:53;;;;;;;7.65;5.03;;;;;;;4.02;78.40;98684.38;6233314;23;20436;-77
2024/01/19 12:47:46;;;;;;;10.13;5.57;;;;;;;4.08;78.20;98734.34;6210685;23;20043;-77
2024/01/19 12:50:31;;;;;;;10.40;6.03;;;;;;;3.98;79.01;98744.44;6232616;23;20039;-77
2024/01/19 12:53:17;;;;;;;12.88;6.07;;;;;;;3.77;78.42;98757.72;6232983;23;20027;-79